sensor_id;sensor_type;location;lat;lon;timestamp;P1;durP1;ratioP1;P2;durP2;ratioP2
1691;SDS011;843;52.054;8.552;2023-11-19T06:57:34;21.33;;;7.47;;
1691;SDS011;843;52.054;8.552;2023-11-19T07:00:01;19.90;;;5.90;;
1691;SDS011;843;52.054;8.552;2023-11-19T07:02:30;21.37;;;5.67;;
1691;SDS011;843;52.054;8.552;2023-11-19T07:04:57;18.47;;;6.13;;
1691;SDS011;843;52.054;8.552;2023-11-19T07:07:23;23.50;;;7.07;;
1691;SDS011;843;52.054;8.552;2023-11-19T07:09:49;22.70;;;6.27;;
1691;SDS011;843;52.054;8.552;2023-11-19T07:15:00;20.90;;;5.60;;
1691;SDS011;843;52.054;8.552;2023-11-19T07:17:27;27.70;;;6.90;;
1691;SDS011;843;52.054;8.552;2023-11-19T07:19:53;24.47;;;7.40;;
1691;SDS011;843;52.054;8.552;2023-11-19T07:22:20;22.27;;;7.20;;
1691;SDS011;843;52.054;8.552;2023-11-19T07:24:46;20.97;;;7.40;;
1691;SDS011;843;52.054;8.552;2023-11-19T07:27:12;30.27;;;6.93;;
1691;SDS011;843;52.054;8.552;2023-11-19T07:29:39;28.20;;;7.83;;
1691;SDS011;843;52.054;8.552;2023-11-19T07:32:07;21.97;;;6.40;;
1691;SDS011;843;52.054;8.552;2023-11-19T07:34:34;25.20;;;5.77;;
1691;SDS011;843;52.054;8.552;2023-11-19T07:37:00;28.00;;;6.13;;
1691;SDS011;843;52.054;8.552;2023-11-19T07:39:27;26.23;;;5.93;;
1691;SDS011;843;52.054;8.552;2023-11-19T07:41:54;19.93;;;5.80;;
1691;SDS011;843;52.054;8.552;2023-11-19T07:44:20;12.13;;;5.80;;
1691;SDS011;843;52.054;8.552;2023-11-19T07:46:47;21.53;;;5.80;;
1691;SDS011;843;52.054;8.552;2023-11-19T07:49:15;24.57;;;5.50;;
1691;SDS011;843;52.054;8.552;2023-11-19T07:51:41;23.03;;;6.27;;
1691;SDS011;843;52.054;8.552;2023-11-19T07:54:08;23.43;;;5.30;;
1691;SDS011;843;52.054;8.552;2023-11-19T07:56:34;33.53;;;7.17;;
1691;SDS011;843;52.054;8.552;2023-11-19T07:59:01;27.40;;;5.30;;
1691;SDS011;843;52.054;8.552;2023-11-19T08:01:27;21.33;;;4.93;;
1691;SDS011;843;52.054;8.552;2023-11-19T08:03:54;25.00;;;5.90;;
1691;SDS011;843;52.054;8.552;2023-11-19T08:06:22;29.20;;;6.20;;
1691;SDS011;843;52.054;8.552;2023-11-19T08:08:48;27.40;;;6.03;;
1691;SDS011;843;52.054;8.552;2023-11-19T08:11:15;26.23;;;6.10;;
1691;SDS011;843;52.054;8.552;2023-11-19T08:13:41;31.37;;;6.17;;
1691;SDS011;843;52.054;8.552;2023-11-19T08:16:08;22.20;;;5.77;;
1691;SDS011;843;52.054;8.552;2023-11-19T08:18:34;15.10;;;5.80;;
1691;SDS011;843;52.054;8.552;2023-11-19T08:21:01;18.77;;;4.33;;
1691;SDS011;843;52.054;8.552;2023-11-19T08:23:31;19.07;;;6.33;;
1691;SDS011;843;52.054;8.552;2023-11-19T08:25:58;28.23;;;5.87;;
1691;SDS011;843;52.054;8.552;2023-11-19T08:28:25;20.17;;;6.20;;
1691;SDS011;843;52.054;8.552;2023-11-19T08:30:51;24.57;;;5.33;;
1691;SDS011;843;52.054;8.552;2023-11-19T08:33:17;19.27;;;5.90;;
1691;SDS011;843;52.054;8.552;2023-11-19T08:35:44;17.10;;;6.13;;
1691;SDS011;843;52.054;8.552;2023-11-19T08:38:12;32.97;;;5.00;;
1691;SDS011;843;52.054;8.552;2023-11-19T08:40:40;22.20;;;6.13;;
1691;SDS011;843;52.054;8.552;2023-11-19T08:43:06;25.80;;;6.97;;
1691;SDS011;843;52.054;8.552;2023-11-19T08:45:32;21.50;;;6.50;;
1691;SDS011;843;52.054;8.552;2023-11-19T08:47:59;25.10;;;5.10;;
1691;SDS011;843;52.054;8.552;2023-11-19T08:50:25;24.80;;;6.40;;
1691;SDS011;843;52.054;8.552;2023-11-19T08:52:51;20.10;;;4.77;;
1691;SDS011;843;52.054;8.552;2023-11-19T08:55:18;15.20;;;5.20;;
1691;SDS011;843;52.054;8.552;2023-11-19T08:57:46;16.40;;;5.40;;
1691;SDS011;843;52.054;8.552;2023-11-19T09:00:12;21.33;;;5.07;;
1691;SDS011;843;52.054;8.552;2023-11-19T09:02:40;25.40;;;6.40;;
1691;SDS011;843;52.054;8.552;2023-11-19T09:05:08;24.50;;;5.93;;
1691;SDS011;843;52.054;8.552;2023-11-19T09:07:34;24.77;;;5.30;;
1691;SDS011;843;52.054;8.552;2023-11-19T09:10:01;20.83;;;5.07;;
1691;SDS011;843;52.054;8.552;2023-11-19T09:12:30;14.80;;;4.97;;
1691;SDS011;843;52.054;8.552;2023-11-19T09:14:58;24.27;;;5.37;;
1691;SDS011;843;52.054;8.552;2023-11-19T09:17:24;25.77;;;5.27;;
1691;SDS011;843;52.054;8.552;2023-11-19T09:19:50;22.57;;;6.53;;
1691;SDS011;843;52.054;8.552;2023-11-19T09:22:17;16.07;;;5.50;;
1691;SDS011;843;52.054;8.552;2023-11-19T09:24:43;18.50;;;5.23;;
1691;SDS011;843;52.054;8.552;2023-11-19T09:27:10;17.93;;;5.20;;
1691;SDS011;843;52.054;8.552;2023-11-19T09:29:36;24.73;;;6.60;;
1691;SDS011;843;52.054;8.552;2023-11-19T09:32:05;22.43;;;6.33;;
1691;SDS011;843;52.054;8.552;2023-11-19T09:34:32;23.37;;;5.10;;
1691;SDS011;843;52.054;8.552;2023-11-19T09:36:58;22.60;;;5.47;;
1691;SDS011;843;52.054;8.552;2023-11-19T09:39:25;13.27;;;4.80;;
1691;SDS011;843;52.054;8.552;2023-11-19T09:41:51;20.90;;;5.33;;
1691;SDS011;843;52.054;8.552;2023-11-19T09:44:18;20.93;;;6.40;;
1691;SDS011;843;52.054;8.552;2023-11-19T09:46:46;24.93;;;6.33;;
1691;SDS011;843;52.054;8.552;2023-11-19T09:49:15;17.53;;;5.50;;
1691;SDS011;843;52.054;8.552;2023-11-19T09:51:42;22.07;;;5.97;;
1691;SDS011;843;52.054;8.552;2023-11-19T09:54:09;23.73;;;6.17;;
1691;SDS011;843;52.054;8.552;2023-11-19T09:56:38;20.40;;;4.40;;
1691;SDS011;843;52.054;8.552;2023-11-19T09:59:05;15.73;;;5.00;;
1691;SDS011;843;52.054;8.552;2023-11-19T10:01:31;24.77;;;5.57;;
1691;SDS011;843;52.054;8.552;2023-11-19T10:03:59;14.70;;;6.13;;
1691;SDS011;843;52.054;8.552;2023-11-19T10:06:27;21.13;;;5.10;;
1691;SDS011;843;52.054;8.552;2023-11-19T10:08:53;19.07;;;5.50;;
1691;SDS011;843;52.054;8.552;2023-11-19T10:11:20;26.50;;;5.70;;
1691;SDS011;843;52.054;8.552;2023-11-19T10:13:47;24.33;;;6.07;;
1691;SDS011;843;52.054;8.552;2023-11-19T10:16:13;15.50;;;5.00;;
1691;SDS011;843;52.054;8.552;2023-11-19T10:18:42;26.97;;;5.10;;
1691;SDS011;843;52.054;8.552;2023-11-19T10:21:10;29.97;;;6.53;;
1691;SDS011;843;52.054;8.552;2023-11-19T10:23:48;23.77;;;4.80;;
1691;SDS011;843;52.054;8.552;2023-11-19T10:26:16;19.73;;;5.47;;
1691;SDS011;843;52.054;8.552;2023-11-19T10:28:43;25.63;;;6.20;;
1691;SDS011;843;52.054;8.552;2023-11-19T10:31:11;18.03;;;6.27;;
1691;SDS011;843;52.054;8.552;2023-11-19T10:33:38;24.53;;;5.50;;
1691;SDS011;843;52.054;8.552;2023-11-19T10:36:04;19.50;;;5.37;;
1691;SDS011;843;52.054;8.552;2023-11-19T10:38:31;16.53;;;5.63;;
1691;SDS011;843;52.054;8.552;2023-11-19T10:40:59;21.00;;;6.27;;
1691;SDS011;843;52.054;8.552;2023-11-19T10:43:25;24.13;;;6.03;;
1691;SDS011;843;52.054;8.552;2023-11-19T10:45:52;19.40;;;6.17;;
1691;SDS011;843;52.054;8.552;2023-11-19T10:48:19;26.60;;;6.17;;
1691;SDS011;843;52.054;8.552;2023-11-19T10:50:46;29.33;;;6.93;;
1691;SDS011;843;52.054;8.552;2023-11-19T10:53:15;17.10;;;6.17;;
1691;SDS011;843;52.054;8.552;2023-11-19T10:55:42;17.50;;;5.67;;
1691;SDS011;843;52.054;8.552;2023-11-19T10:58:15;15.13;;;5.43;;
1691;SDS011;843;52.054;8.552;2023-11-19T11:00:43;22.80;;;5.37;;
1691;SDS011;843;52.054;8.552;2023-11-19T11:03:10;21.97;;;5.33;;
1691;SDS011;843;52.054;8.552;2023-11-19T11:05:37;20.97;;;5.30;;
1691;SDS011;843;52.054;8.552;2023-11-19T11:08:04;17.23;;;4.93;;
1691;SDS011;843;52.054;8.552;2023-11-19T11:10:33;20.33;;;5.90;;
1691;SDS011;843;52.054;8.552;2023-11-19T11:13:02;16.37;;;4.77;;
1691;SDS011;843;52.054;8.552;2023-11-19T11:15:30;19.40;;;6.37;;
1691;SDS011;843;52.054;8.552;2023-11-19T11:17:59;25.03;;;5.30;;
1691;SDS011;843;52.054;8.552;2023-11-19T11:20:26;21.20;;;6.87;;
1691;SDS011;843;52.054;8.552;2023-11-19T11:22:55;19.90;;;5.23;;
1691;SDS011;843;52.054;8.552;2023-11-19T11:25:28;20.10;;;5.30;;
1691;SDS011;843;52.054;8.552;2023-11-19T11:28:01;17.63;;;5.60;;
1691;SDS011;843;52.054;8.552;2023-11-19T11:30:35;17.67;;;5.13;;
1691;SDS011;843;52.054;8.552;2023-11-19T11:33:07;23.57;;;5.40;;
1691;SDS011;843;52.054;8.552;2023-11-19T11:35:39;18.67;;;4.73;;
1691;SDS011;843;52.054;8.552;2023-11-19T11:38:10;17.23;;;5.27;;
1691;SDS011;843;52.054;8.552;2023-11-19T11:40:36;19.57;;;7.33;;
1691;SDS011;843;52.054;8.552;2023-11-19T11:43:03;26.07;;;5.20;;
1691;SDS011;843;52.054;8.552;2023-11-19T11:45:38;18.50;;;5.03;;
1691;SDS011;843;52.054;8.552;2023-11-19T11:48:11;20.50;;;5.00;;
1691;SDS011;843;52.054;8.552;2023-11-19T11:50:47;13.80;;;4.60;;
1691;SDS011;843;52.054;8.552;2023-11-19T11:53:17;22.33;;;5.20;;
1691;SDS011;843;52.054;8.552;2023-11-19T11:55:54;22.10;;;5.20;;
1691;SDS011;843;52.054;8.552;2023-11-19T11:58:25;19.83;;;4.97;;
1691;SDS011;843;52.054;8.552;2023-11-19T12:00:53;29.50;;;5.73;;
1691;SDS011;843;52.054;8.552;2023-11-19T12:03:20;21.57;;;4.70;;
1691;SDS011;843;52.054;8.552;2023-11-19T12:05:47;27.67;;;5.83;;
1691;SDS011;843;52.054;8.552;2023-11-19T12:08:14;19.40;;;4.73;;
1691;SDS011;843;52.054;8.552;2023-11-19T12:10:43;24.70;;;5.40;;
1691;SDS011;843;52.054;8.552;2023-11-19T12:13:10;25.83;;;4.80;;
1691;SDS011;843;52.054;8.552;2023-11-19T12:15:47;18.83;;;4.87;;
1691;SDS011;843;52.054;8.552;2023-11-19T12:18:34;20.00;;;5.80;;
1691;SDS011;843;52.054;8.552;2023-11-19T12:21:01;21.53;;;4.57;;
1691;SDS011;843;52.054;8.552;2023-11-19T12:23:27;28.03;;;5.57;;
1691;SDS011;843;52.054;8.552;2023-11-19T12:25:55;25.80;;;6.10;;
1691;SDS011;843;52.054;8.552;2023-11-19T12:28:21;22.03;;;5.50;;
1691;SDS011;843;52.054;8.552;2023-11-19T12:30:49;22.83;;;5.93;;
1691;SDS011;843;52.054;8.552;2023-11-19T12:33:16;14.17;;;4.60;;
1691;SDS011;843;52.054;8.552;2023-11-19T12:35:44;16.43;;;5.67;;
1691;SDS011;843;52.054;8.552;2023-11-19T12:38:18;17.60;;;5.50;;
1691;SDS011;843;52.054;8.552;2023-11-19T12:40:44;18.10;;;4.60;;
1691;SDS011;843;52.054;8.552;2023-11-19T12:43:11;23.63;;;5.13;;
1691;SDS011;843;52.054;8.552;2023-11-19T12:45:47;19.23;;;4.20;;
1691;SDS011;843;52.054;8.552;2023-11-19T12:48:13;23.17;;;5.50;;
1691;SDS011;843;52.054;8.552;2023-11-19T12:50:54;21.00;;;5.23;;
1691;SDS011;843;52.054;8.552;2023-11-19T12:53:21;19.07;;;5.23;;
1691;SDS011;843;52.054;8.552;2023-11-19T12:55:48;16.20;;;4.43;;
1691;SDS011;843;52.054;8.552;2023-11-19T13:01:02;20.57;;;6.43;;
1691;SDS011;843;52.054;8.552;2023-11-19T13:03:29;16.20;;;4.90;;
1691;SDS011;843;52.054;8.552;2023-11-19T13:06:02;20.10;;;5.17;;
1691;SDS011;843;52.054;8.552;2023-11-19T13:08:29;16.10;;;4.40;;
1691;SDS011;843;52.054;8.552;2023-11-19T13:10:55;23.63;;;4.53;;
1691;SDS011;843;52.054;8.552;2023-11-19T13:13:22;23.93;;;5.23;;
1691;SDS011;843;52.054;8.552;2023-11-19T13:15:48;15.87;;;5.00;;
1691;SDS011;843;52.054;8.552;2023-11-19T13:18:15;14.20;;;5.00;;
1691;SDS011;843;52.054;8.552;2023-11-19T13:20:42;26.50;;;4.53;;
1691;SDS011;843;52.054;8.552;2023-11-19T13:23:10;16.30;;;4.73;;
1691;SDS011;843;52.054;8.552;2023-11-19T13:25:37;24.63;;;4.83;;
1691;SDS011;843;52.054;8.552;2023-11-19T13:28:04;20.73;;;4.43;;
1691;SDS011;843;52.054;8.552;2023-11-19T13:30:31;18.60;;;4.73;;
1691;SDS011;843;52.054;8.552;2023-11-19T13:32:57;16.33;;;4.13;;
1691;SDS011;843;52.054;8.552;2023-11-19T13:35:26;18.47;;;4.83;;
1691;SDS011;843;52.054;8.552;2023-11-19T13:37:53;16.20;;;4.40;;
1691;SDS011;843;52.054;8.552;2023-11-19T13:40:21;17.40;;;4.83;;
1691;SDS011;843;52.054;8.552;2023-11-19T13:42:49;25.43;;;5.73;;
1691;SDS011;843;52.054;8.552;2023-11-19T13:45:16;17.73;;;4.47;;
1691;SDS011;843;52.054;8.552;2023-11-19T13:47:43;16.63;;;4.47;;
1691;SDS011;843;52.054;8.552;2023-11-19T13:50:11;17.63;;;6.00;;
1691;SDS011;843;52.054;8.552;2023-11-19T13:52:39;16.83;;;5.03;;
1691;SDS011;843;52.054;8.552;2023-11-19T13:55:06;15.00;;;4.73;;
1691;SDS011;843;52.054;8.552;2023-11-19T13:57:34;23.63;;;5.40;;
1691;SDS011;843;52.054;8.552;2023-11-19T14:00:01;15.97;;;4.90;;
1691;SDS011;843;52.054;8.552;2023-11-19T14:02:30;16.47;;;4.33;;
1691;SDS011;843;52.054;8.552;2023-11-19T14:04:57;17.10;;;4.00;;
1691;SDS011;843;52.054;8.552;2023-11-19T14:07:24;16.23;;;5.83;;
1691;SDS011;843;52.054;8.552;2023-11-19T14:09:51;16.20;;;4.20;;
1691;SDS011;843;52.054;8.552;2023-11-19T14:12:17;12.07;;;4.53;;
1691;SDS011;843;52.054;8.552;2023-11-19T14:14:45;20.23;;;5.27;;
1691;SDS011;843;52.054;8.552;2023-11-19T14:17:12;20.10;;;5.00;;
1691;SDS011;843;52.054;8.552;2023-11-19T14:19:40;12.27;;;4.77;;
1691;SDS011;843;52.054;8.552;2023-11-19T14:22:07;15.07;;;5.23;;
1691;SDS011;843;52.054;8.552;2023-11-19T14:24:34;12.07;;;3.80;;
1691;SDS011;843;52.054;8.552;2023-11-19T14:27:00;15.27;;;4.50;;
1691;SDS011;843;52.054;8.552;2023-11-19T14:29:27;10.10;;;4.40;;
1691;SDS011;843;52.054;8.552;2023-11-19T14:31:56;22.97;;;6.30;;
1691;SDS011;843;52.054;8.552;2023-11-19T14:34:24;20.93;;;5.30;;
1691;SDS011;843;52.054;8.552;2023-11-19T14:36:51;18.20;;;4.60;;
1691;SDS011;843;52.054;8.552;2023-11-19T14:39:18;14.07;;;4.17;;
1691;SDS011;843;52.054;8.552;2023-11-19T14:41:45;13.97;;;4.77;;
1691;SDS011;843;52.054;8.552;2023-11-19T14:44:11;17.93;;;5.73;;
1691;SDS011;843;52.054;8.552;2023-11-19T14:46:38;16.43;;;4.83;;
1691;SDS011;843;52.054;8.552;2023-11-19T14:49:05;14.17;;;4.40;;
1691;SDS011;843;52.054;8.552;2023-11-19T14:51:35;17.03;;;4.30;;
1691;SDS011;843;52.054;8.552;2023-11-19T14:54:01;12.33;;;4.50;;
1691;SDS011;843;52.054;8.552;2023-11-19T14:56:28;9.40;;;3.70;;
1691;SDS011;843;52.054;8.552;2023-11-19T14:58:54;17.33;;;4.70;;
1691;SDS011;843;52.054;8.552;2023-11-19T15:01:20;12.27;;;3.87;;
1691;SDS011;843;52.054;8.552;2023-11-19T15:03:47;12.43;;;4.07;;
1691;SDS011;843;52.054;8.552;2023-11-19T15:06:15;9.87;;;3.47;;
1691;SDS011;843;52.054;8.552;2023-11-19T15:08:41;19.20;;;4.70;;
1691;SDS011;843;52.054;8.552;2023-11-19T15:11:09;16.77;;;4.70;;
1691;SDS011;843;52.054;8.552;2023-11-19T15:13:37;12.80;;;3.53;;
1691;SDS011;843;52.054;8.552;2023-11-19T15:16:06;10.43;;;4.27;;
1691;SDS011;843;52.054;8.552;2023-11-19T15:18:35;12.47;;;3.40;;
1691;SDS011;843;52.054;8.552;2023-11-19T15:21:02;13.60;;;3.83;;
1691;SDS011;843;52.054;8.552;2023-11-19T15:23:30;13.10;;;4.70;;
1691;SDS011;843;52.054;8.552;2023-11-19T15:25:56;8.73;;;4.20;;
1691;SDS011;843;52.054;8.552;2023-11-19T15:28:22;14.67;;;4.80;;
1691;SDS011;843;52.054;8.552;2023-11-19T15:30:49;14.57;;;3.63;;
1691;SDS011;843;52.054;8.552;2023-11-19T15:33:15;13.40;;;3.77;;
1691;SDS011;843;52.054;8.552;2023-11-19T15:35:42;15.70;;;4.00;;
1691;SDS011;843;52.054;8.552;2023-11-19T15:38:08;11.27;;;3.70;;
1691;SDS011;843;52.054;8.552;2023-11-19T15:40:37;12.07;;;4.10;;
1691;SDS011;843;52.054;8.552;2023-11-19T15:43:03;20.13;;;4.30;;
1691;SDS011;843;52.054;8.552;2023-11-19T15:45:32;13.37;;;3.93;;
1691;SDS011;843;52.054;8.552;2023-11-19T15:48:02;15.20;;;3.47;;
1691;SDS011;843;52.054;8.552;2023-11-19T15:50:29;16.43;;;4.03;;
1691;SDS011;843;52.054;8.552;2023-11-19T15:52:56;16.70;;;4.90;;
1691;SDS011;843;52.054;8.552;2023-11-19T15:55:24;11.60;;;3.60;;
1691;SDS011;843;52.054;8.552;2023-11-19T15:57:51;14.50;;;4.50;;
1691;SDS011;843;52.054;8.552;2023-11-19T16:00:18;19.03;;;3.93;;
1691;SDS011;843;52.054;8.552;2023-11-19T16:02:46;13.57;;;4.17;;
1691;SDS011;843;52.054;8.552;2023-11-19T16:05:12;16.37;;;3.67;;
1691;SDS011;843;52.054;8.552;2023-11-19T16:07:39;33.17;;;5.33;;
1691;SDS011;843;52.054;8.552;2023-11-19T16:10:06;18.00;;;4.10;;
1691;SDS011;843;52.054;8.552;2023-11-19T16:12:37;22.50;;;4.83;;
1691;SDS011;843;52.054;8.552;2023-11-19T16:15:06;16.13;;;3.87;;
1691;SDS011;843;52.054;8.552;2023-11-19T16:17:33;9.30;;;3.83;;
1691;SDS011;843;52.054;8.552;2023-11-19T16:20:00;7.10;;;3.60;;
1691;SDS011;843;52.054;8.552;2023-11-19T16:22:26;16.37;;;4.40;;
1691;SDS011;843;52.054;8.552;2023-11-19T16:24:53;9.27;;;4.50;;
1691;SDS011;843;52.054;8.552;2023-11-19T16:27:19;11.07;;;4.70;;
1691;SDS011;843;52.054;8.552;2023-11-19T16:29:46;10.83;;;3.93;;
1691;SDS011;843;52.054;8.552;2023-11-19T16:32:14;9.50;;;3.70;;
1691;SDS011;843;52.054;8.552;2023-11-19T16:34:40;19.17;;;4.70;;
1691;SDS011;843;52.054;8.552;2023-11-19T16:37:07;14.63;;;4.57;;
1691;SDS011;843;52.054;8.552;2023-11-19T16:39:35;13.13;;;4.27;;
1691;SDS011;843;52.054;8.552;2023-11-19T16:42:01;14.13;;;4.50;;
1691;SDS011;843;52.054;8.552;2023-11-19T16:44:28;21.10;;;4.73;;
1691;SDS011;843;52.054;8.552;2023-11-19T16:46:54;21.77;;;4.70;;
1691;SDS011;843;52.054;8.552;2023-11-19T16:49:22;19.30;;;5.97;;
1691;SDS011;843;52.054;8.552;2023-11-19T16:51:49;10.80;;;4.27;;
1691;SDS011;843;52.054;8.552;2023-11-19T16:54:17;11.83;;;4.30;;
1691;SDS011;843;52.054;8.552;2023-11-19T16:56:43;11.60;;;3.93;;
1691;SDS011;843;52.054;8.552;2023-11-19T16:59:10;15.20;;;5.10;;
1691;SDS011;843;52.054;8.552;2023-11-19T17:01:36;14.27;;;4.60;;
1691;SDS011;843;52.054;8.552;2023-11-19T17:04:03;15.60;;;4.30;;
1691;SDS011;843;52.054;8.552;2023-11-19T17:06:31;12.83;;;3.67;;
1691;SDS011;843;52.054;8.552;2023-11-19T17:08:57;13.53;;;4.67;;
1691;SDS011;843;52.054;8.552;2023-11-19T17:11:24;14.70;;;3.70;;
1691;SDS011;843;52.054;8.552;2023-11-19T17:13:50;11.83;;;3.77;;
1691;SDS011;843;52.054;8.552;2023-11-19T17:16:17;17.57;;;5.03;;
1691;SDS011;843;52.054;8.552;2023-11-19T17:18:43;23.70;;;4.50;;
1691;SDS011;843;52.054;8.552;2023-11-19T17:21:10;15.10;;;5.10;;
1691;SDS011;843;52.054;8.552;2023-11-19T17:23:38;12.53;;;4.70;;
1691;SDS011;843;52.054;8.552;2023-11-19T17:26:05;14.10;;;5.20;;
1691;SDS011;843;52.054;8.552;2023-11-19T17:28:32;16.03;;;4.60;;
1691;SDS011;843;52.054;8.552;2023-11-19T17:31:00;15.80;;;4.13;;
1691;SDS011;843;52.054;8.552;2023-11-19T17:33:27;17.90;;;4.30;;
1691;SDS011;843;52.054;8.552;2023-11-19T17:35:55;14.03;;;4.90;;
1691;SDS011;843;52.054;8.552;2023-11-19T17:38:21;17.47;;;4.80;;
1691;SDS011;843;52.054;8.552;2023-11-19T17:40:52;16.10;;;5.50;;
1691;SDS011;843;52.054;8.552;2023-11-19T17:43:19;6.50;;;3.30;;
1691;SDS011;843;52.054;8.552;2023-11-19T17:45:45;13.90;;;4.53;;
1691;SDS011;843;52.054;8.552;2023-11-19T17:48:12;21.30;;;3.83;;
1691;SDS011;843;52.054;8.552;2023-11-19T17:50:38;9.43;;;4.03;;
1691;SDS011;843;52.054;8.552;2023-11-19T17:53:05;20.47;;;4.23;;
1691;SDS011;843;52.054;8.552;2023-11-19T17:55:31;13.60;;;3.57;;
1691;SDS011;843;52.054;8.552;2023-11-19T17:57:59;9.70;;;3.70;;
1691;SDS011;843;52.054;8.552;2023-11-19T18:00:25;12.93;;;3.93;;
1691;SDS011;843;52.054;8.552;2023-11-19T18:02:52;9.77;;;3.83;;
1691;SDS011;843;52.054;8.552;2023-11-19T18:05:19;12.80;;;4.20;;
1691;SDS011;843;52.054;8.552;2023-11-19T18:07:46;7.17;;;4.10;;
1691;SDS011;843;52.054;8.552;2023-11-19T18:10:13;18.43;;;4.90;;
1691;SDS011;843;52.054;8.552;2023-11-19T18:12:39;16.67;;;4.83;;
1691;SDS011;843;52.054;8.552;2023-11-19T18:15:08;13.57;;;5.60;;
1691;SDS011;843;52.054;8.552;2023-11-19T18:17:37;16.77;;;4.80;;
1691;SDS011;843;52.054;8.552;2023-11-19T18:20:07;13.70;;;5.53;;
1691;SDS011;843;52.054;8.552;2023-11-19T18:22:36;10.27;;;5.57;;
1691;SDS011;843;52.054;8.552;2023-11-19T18:25:03;10.43;;;5.00;;
1691;SDS011;843;52.054;8.552;2023-11-19T18:27:30;17.03;;;5.57;;
1691;SDS011;843;52.054;8.552;2023-11-19T18:29:57;13.70;;;5.40;;
1691;SDS011;843;52.054;8.552;2023-11-19T18:32:25;13.10;;;5.07;;
1691;SDS011;843;52.054;8.552;2023-11-19T18:34:51;18.03;;;5.20;;
1691;SDS011;843;52.054;8.552;2023-11-19T18:37:18;12.90;;;5.50;;
1691;SDS011;843;52.054;8.552;2023-11-19T18:39:44;14.93;;;4.80;;
1691;SDS011;843;52.054;8.552;2023-11-19T18:42:10;14.63;;;5.00;;
1691;SDS011;843;52.054;8.552;2023-11-19T18:44:38;13.73;;;5.50;;
1691;SDS011;843;52.054;8.552;2023-11-19T18:47:04;14.27;;;4.97;;
1691;SDS011;843;52.054;8.552;2023-11-19T18:49:33;13.67;;;5.33;;
1691;SDS011;843;52.054;8.552;2023-11-19T18:51:59;21.77;;;6.00;;
1691;SDS011;843;52.054;8.552;2023-11-19T18:54:26;14.37;;;6.60;;
1691;SDS011;843;52.054;8.552;2023-11-19T18:56:53;10.40;;;4.93;;
1691;SDS011;843;52.054;8.552;2023-11-19T18:59:22;17.53;;;6.13;;
1691;SDS011;843;52.054;8.552;2023-11-19T19:01:48;15.60;;;5.33;;
1691;SDS011;843;52.054;8.552;2023-11-19T19:04:15;17.33;;;5.53;;
1691;SDS011;843;52.054;8.552;2023-11-19T19:06:44;20.10;;;5.53;;
1691;SDS011;843;52.054;8.552;2023-11-19T19:09:13;13.17;;;5.43;;
1691;SDS011;843;52.054;8.552;2023-11-19T19:11:43;9.60;;;5.23;;
1691;SDS011;843;52.054;8.552;2023-11-19T19:14:10;9.20;;;5.93;;
1691;SDS011;843;52.054;8.552;2023-11-19T19:16:38;13.67;;;5.70;;
1691;SDS011;843;52.054;8.552;2023-11-19T19:19:05;11.47;;;5.03;;
1691;SDS011;843;52.054;8.552;2023-11-19T19:21:32;9.17;;;4.73;;
1691;SDS011;843;52.054;8.552;2023-11-19T19:24:00;14.33;;;5.23;;
1691;SDS011;843;52.054;8.552;2023-11-19T19:26:28;14.37;;;5.87;;
1691;SDS011;843;52.054;8.552;2023-11-19T19:28:55;10.90;;;5.00;;
1691;SDS011;843;52.054;8.552;2023-11-19T19:31:21;8.97;;;4.67;;
1691;SDS011;843;52.054;8.552;2023-11-19T19:33:50;11.03;;;4.40;;
1691;SDS011;843;52.054;8.552;2023-11-19T19:36:22;7.70;;;4.77;;
1691;SDS011;843;52.054;8.552;2023-11-19T19:38:49;10.13;;;4.73;;
1691;SDS011;843;52.054;8.552;2023-11-19T19:41:17;15.33;;;5.40;;
1691;SDS011;843;52.054;8.552;2023-11-19T19:43:43;8.63;;;5.57;;
1691;SDS011;843;52.054;8.552;2023-11-19T19:46:10;11.40;;;5.50;;
1691;SDS011;843;52.054;8.552;2023-11-19T19:48:37;15.20;;;5.80;;
1691;SDS011;843;52.054;8.552;2023-11-19T19:51:04;9.67;;;6.20;;
1691;SDS011;843;52.054;8.552;2023-11-19T19:53:32;10.20;;;4.50;;
1691;SDS011;843;52.054;8.552;2023-11-19T19:56:00;7.03;;;4.60;;
1691;SDS011;843;52.054;8.552;2023-11-19T19:58:28;10.17;;;4.77;;
1691;SDS011;843;52.054;8.552;2023-11-19T20:00:55;9.30;;;5.70;;
1691;SDS011;843;52.054;8.552;2023-11-19T20:03:21;7.30;;;4.70;;
1691;SDS011;843;52.054;8.552;2023-11-19T20:05:48;7.43;;;4.07;;
1691;SDS011;843;52.054;8.552;2023-11-19T20:08:14;7.70;;;4.03;;
1691;SDS011;843;52.054;8.552;2023-11-19T20:10:41;4.03;;;3.40;;
1691;SDS011;843;52.054;8.552;2023-11-19T20:13:07;8.30;;;5.13;;
1691;SDS011;843;52.054;8.552;2023-11-19T20:15:36;6.27;;;4.43;;
1691;SDS011;843;52.054;8.552;2023-11-19T20:18:03;6.70;;;3.70;;
1691;SDS011;843;52.054;8.552;2023-11-19T20:20:30;5.60;;;4.33;;
1691;SDS011;843;52.054;8.552;2023-11-19T20:22:57;9.43;;;4.20;;
1691;SDS011;843;52.054;8.552;2023-11-19T20:25:24;7.63;;;3.60;;
1691;SDS011;843;52.054;8.552;2023-11-19T20:27:52;7.00;;;3.77;;
1691;SDS011;843;52.054;8.552;2023-11-19T20:30:19;7.73;;;3.80;;
1691;SDS011;843;52.054;8.552;2023-11-19T20:32:47;10.90;;;4.57;;
1691;SDS011;843;52.054;8.552;2023-11-19T20:35:13;4.13;;;3.73;;
1691;SDS011;843;52.054;8.552;2023-11-19T20:37:40;11.50;;;4.80;;
1691;SDS011;843;52.054;8.552;2023-11-19T20:40:07;10.63;;;4.63;;
1691;SDS011;843;52.054;8.552;2023-11-19T20:42:34;7.23;;;4.97;;
1691;SDS011;843;52.054;8.552;2023-11-19T20:45:02;11.30;;;5.17;;
1691;SDS011;843;52.054;8.552;2023-11-19T20:47:29;7.67;;;5.07;;
1691;SDS011;843;52.054;8.552;2023-11-19T20:50:00;8.53;;;4.53;;
1691;SDS011;843;52.054;8.552;2023-11-19T20:52:28;9.27;;;4.73;;
1691;SDS011;843;52.054;8.552;2023-11-19T20:54:55;8.47;;;4.70;;
1691;SDS011;843;52.054;8.552;2023-11-19T20:57:21;10.30;;;4.30;;
1691;SDS011;843;52.054;8.552;2023-11-19T20:59:48;12.37;;;5.20;;
1691;SDS011;843;52.054;8.552;2023-11-19T21:02:14;8.70;;;4.40;;
1691;SDS011;843;52.054;8.552;2023-11-19T21:04:41;8.87;;;4.23;;
1691;SDS011;843;52.054;8.552;2023-11-19T21:07:09;9.93;;;4.20;;
1691;SDS011;843;52.054;8.552;2023-11-19T21:09:36;4.53;;;3.30;;
1691;SDS011;843;52.054;8.552;2023-11-19T21:12:02;5.23;;;2.90;;
1691;SDS011;843;52.054;8.552;2023-11-19T21:14:29;5.80;;;2.80;;
1691;SDS011;843;52.054;8.552;2023-11-19T21:16:57;6.83;;;3.40;;
1691;SDS011;843;52.054;8.552;2023-11-19T21:19:23;7.10;;;3.10;;
1691;SDS011;843;52.054;8.552;2023-11-19T21:21:50;5.47;;;2.60;;
1691;SDS011;843;52.054;8.552;2023-11-19T21:24:18;5.93;;;2.30;;
1691;SDS011;843;52.054;8.552;2023-11-19T21:26:45;9.60;;;2.60;;
1691;SDS011;843;52.054;8.552;2023-11-19T21:29:14;2.87;;;2.57;;
1691;SDS011;843;52.054;8.552;2023-11-19T21:31:40;3.90;;;3.20;;
1691;SDS011;843;52.054;8.552;2023-11-19T21:34:07;3.80;;;2.43;;
1691;SDS011;843;52.054;8.552;2023-11-19T21:36:35;4.43;;;2.50;;
1691;SDS011;843;52.054;8.552;2023-11-19T21:39:02;3.77;;;2.47;;
1691;SDS011;843;52.054;8.552;2023-11-19T21:41:32;4.77;;;3.10;;
1691;SDS011;843;52.054;8.552;2023-11-19T21:43:58;5.90;;;2.83;;
1691;SDS011;843;52.054;8.552;2023-11-19T21:46:25;4.47;;;3.20;;
1691;SDS011;843;52.054;8.552;2023-11-19T21:48:51;4.13;;;2.80;;
1691;SDS011;843;52.054;8.552;2023-11-19T21:51:18;5.97;;;3.00;;
1691;SDS011;843;52.054;8.552;2023-11-19T21:53:44;3.80;;;2.80;;
1691;SDS011;843;52.054;8.552;2023-11-19T21:56:11;2.90;;;2.47;;
1691;SDS011;843;52.054;8.552;2023-11-19T21:58:39;2.90;;;2.60;;
1691;SDS011;843;52.054;8.552;2023-11-19T22:01:08;4.90;;;2.87;;
1691;SDS011;843;52.054;8.552;2023-11-19T22:03:35;2.37;;;1.90;;
1691;SDS011;843;52.054;8.552;2023-11-19T22:06:02;4.03;;;3.10;;
1691;SDS011;843;52.054;8.552;2023-11-19T22:08:28;3.83;;;3.00;;
1691;SDS011;843;52.054;8.552;2023-11-19T22:10:54;3.03;;;2.30;;
1691;SDS011;843;52.054;8.552;2023-11-19T22:13:21;1.90;;;1.70;;
1691;SDS011;843;52.054;8.552;2023-11-19T22:15:49;2.17;;;1.93;;
1691;SDS011;843;52.054;8.552;2023-11-19T22:18:16;3.20;;;1.70;;
1691;SDS011;843;52.054;8.552;2023-11-19T22:20:42;2.20;;;1.70;;